sensor_id;sensor_type;location;lat;lon;timestamp;P1;durP1;ratioP1;P2;durP2;ratioP2
54121;SDS011;40029;58.708;50.190;2022-08-01T00:03:03;75.55;;;15.60;;
54121;SDS011;40029;58.708;50.190;2022-08-01T00:05:35;33.65;;;14.07;;
54121;SDS011;40029;58.708;50.190;2022-08-01T00:08:06;54.38;;;15.88;;
54121;SDS011;40029;58.708;50.190;2022-08-01T00:10:37;26.90;;;15.82;;
54121;SDS011;40029;58.708;50.190;2022-08-01T00:13:07;24.48;;;15.43;;
54121;SDS011;40029;58.708;50.190;2022-08-01T00:15:39;38.72;;;14.45;;
54121;SDS011;40029;58.708;50.190;2022-08-01T00:18:10;46.00;;;15.98;;
54121;SDS011;40029;58.708;50.190;2022-08-01T00:20:41;32.03;;;14.95;;
54121;SDS011;40029;58.708;50.190;2022-08-01T00:23:12;35.50;;;16.10;;
54121;SDS011;40029;58.708;50.190;2022-08-01T00:25:43;40.13;;;15.82;;
54121;SDS011;40029;58.708;50.190;2022-08-01T00:28:14;63.17;;;16.05;;
54121;SDS011;40029;58.708;50.190;2022-08-01T00:30:45;37.60;;;15.68;;
54121;SDS011;40029;58.708;50.190;2022-08-01T00:33:16;76.10;;;15.23;;
54121;SDS011;40029;58.708;50.190;2022-08-01T00:35:47;38.13;;;15.18;;
54121;SDS011;40029;58.708;50.190;2022-08-01T00:38:18;38.30;;;15.07;;
54121;SDS011;40029;58.708;50.190;2022-08-01T00:40:49;27.45;;;14.52;;
54121;SDS011;40029;58.708;50.190;2022-08-01T00:43:20;37.50;;;17.55;;
54121;SDS011;40029;58.708;50.190;2022-08-01T00:45:51;27.35;;;15.18;;
54121;SDS011;40029;58.708;50.190;2022-08-01T00:48:22;27.55;;;16.02;;
54121;SDS011;40029;58.708;50.190;2022-08-01T00:50:53;22.17;;;14.90;;
54121;SDS011;40029;58.708;50.190;2022-08-01T00:53:25;24.75;;;15.70;;
54121;SDS011;40029;58.708;50.190;2022-08-01T00:55:56;25.98;;;17.42;;
54121;SDS011;40029;58.708;50.190;2022-08-01T00:58:27;28.73;;;16.80;;
54121;SDS011;40029;58.708;50.190;2022-08-01T01:01:01;31.33;;;16.33;;
54121;SDS011;40029;58.708;50.190;2022-08-01T01:03:32;42.15;;;16.52;;
54121;SDS011;40029;58.708;50.190;2022-08-01T01:12:00;117.30;;;19.05;;
54121;SDS011;40029;58.708;50.190;2022-08-01T01:14:38;115.07;;;19.27;;
54121;SDS011;40029;58.708;50.190;2022-08-01T01:17:09;50.22;;;16.23;;
54121;SDS011;40029;58.708;50.190;2022-08-01T01:19:48;199.48;;;18.73;;
54121;SDS011;40029;58.708;50.190;2022-08-01T01:25:37;124.65;;;21.13;;
54121;SDS011;40029;58.708;50.190;2022-08-01T01:28:40;247.35;;;21.13;;
54121;SDS011;40029;58.708;50.190;2022-08-01T01:31:32;111.30;;;17.73;;
54121;SDS011;40029;58.708;50.190;2022-08-01T01:34:13;89.13;;;18.33;;
54121;SDS011;40029;58.708;50.190;2022-08-01T01:36:48;107.15;;;22.17;;
54121;SDS011;40029;58.708;50.190;2022-08-01T01:39:22;78.45;;;20.60;;
54121;SDS011;40029;58.708;50.190;2022-08-01T01:41:56;216.55;;;27.42;;
54121;SDS011;40029;58.708;50.190;2022-08-01T01:44:29;204.75;;;28.48;;
54121;SDS011;40029;58.708;50.190;2022-08-01T01:47:01;229.50;;;29.20;;
54121;SDS011;40029;58.708;50.190;2022-08-01T01:49:33;260.30;;;28.98;;
54121;SDS011;40029;58.708;50.190;2022-08-01T01:52:05;217.38;;;26.40;;
54121;SDS011;40029;58.708;50.190;2022-08-01T01:54:39;139.63;;;26.65;;
54121;SDS011;40029;58.708;50.190;2022-08-01T01:57:13;87.47;;;24.65;;
54121;SDS011;40029;58.708;50.190;2022-08-01T01:59:45;98.15;;;20.08;;
54121;SDS011;40029;58.708;50.190;2022-08-01T02:02:18;183.52;;;20.40;;
54121;SDS011;40029;58.708;50.190;2022-08-01T02:04:49;91.47;;;17.17;;
54121;SDS011;40029;58.708;50.190;2022-08-01T02:07:24;140.38;;;16.75;;
54121;SDS011;40029;58.708;50.190;2022-08-01T02:09:56;84.57;;;15.93;;
54121;SDS011;40029;58.708;50.190;2022-08-01T02:12:29;87.47;;;15.52;;
54121;SDS011;40029;58.708;50.190;2022-08-01T02:15:08;98.45;;;14.35;;
54121;SDS011;40029;58.708;50.190;2022-08-01T02:17:41;124.55;;;14.98;;
54121;SDS011;40029;58.708;50.190;2022-08-01T02:20:16;69.78;;;14.85;;
54121;SDS011;40029;58.708;50.190;2022-08-01T02:22:52;64.60;;;12.00;;
54121;SDS011;40029;58.708;50.190;2022-08-01T02:25:46;117.15;;;15.65;;
54121;SDS011;40029;58.708;50.190;2022-08-01T02:28:21;56.45;;;14.27;;
54121;SDS011;40029;58.708;50.190;2022-08-01T02:31:02;107.93;;;13.10;;
54121;SDS011;40029;58.708;50.190;2022-08-01T02:33:39;32.55;;;12.40;;
54121;SDS011;40029;58.708;50.190;2022-08-01T02:36:13;39.35;;;10.68;;
54121;SDS011;40029;58.708;50.190;2022-08-01T02:38:47;26.08;;;8.77;;
54121;SDS011;40029;58.708;50.190;2022-08-01T02:41:19;57.92;;;9.65;;
54121;SDS011;40029;58.708;50.190;2022-08-01T02:43:53;36.60;;;10.80;;
54121;SDS011;40029;58.708;50.190;2022-08-01T02:46:39;26.10;;;13.65;;
54121;SDS011;40029;58.708;50.190;2022-08-01T02:49:22;33.42;;;17.17;;
54121;SDS011;40029;58.708;50.190;2022-08-01T02:51:54;59.58;;;10.32;;
54121;SDS011;40029;58.708;50.190;2022-08-01T02:54:27;50.33;;;9.18;;
54121;SDS011;40029;58.708;50.190;2022-08-01T02:57:00;36.20;;;9.38;;
54121;SDS011;40029;58.708;50.190;2022-08-01T02:59:33;127.30;;;9.73;;
54121;SDS011;40029;58.708;50.190;2022-08-01T03:02:08;23.20;;;7.65;;
54121;SDS011;40029;58.708;50.190;2022-08-01T03:04:41;68.85;;;8.80;;
54121;SDS011;40029;58.708;50.190;2022-08-01T03:07:13;53.20;;;8.30;;
54121;SDS011;40029;58.708;50.190;2022-08-01T03:09:46;50.85;;;8.82;;
54121;SDS011;40029;58.708;50.190;2022-08-01T03:12:19;59.53;;;9.02;;
54121;SDS011;40029;58.708;50.190;2022-08-01T03:14:56;41.33;;;9.05;;
54121;SDS011;40029;58.708;50.190;2022-08-01T03:17:30;19.20;;;8.48;;
54121;SDS011;40029;58.708;50.190;2022-08-01T03:20:02;27.90;;;9.38;;
54121;SDS011;40029;58.708;50.190;2022-08-01T03:22:35;17.63;;;9.85;;
54121;SDS011;40029;58.708;50.190;2022-08-01T03:25:09;20.42;;;10.40;;
54121;SDS011;40029;58.708;50.190;2022-08-01T03:27:43;24.83;;;15.00;;
54121;SDS011;40029;58.708;50.190;2022-08-01T03:30:18;20.45;;;13.02;;
54121;SDS011;40029;58.708;50.190;2022-08-01T03:32:49;16.90;;;12.73;;
54121;SDS011;40029;58.708;50.190;2022-08-01T03:35:20;18.00;;;12.90;;
54121;SDS011;40029;58.708;50.190;2022-08-01T03:37:54;22.33;;;13.90;;
54121;SDS011;40029;58.708;50.190;2022-08-01T03:43:32;11.23;;;9.02;;
54121;SDS011;40029;58.708;50.190;2022-08-01T03:48:46;12.13;;;9.65;;
54121;SDS011;40029;58.708;50.190;2022-08-01T03:51:20;10.30;;;9.18;;
54121;SDS011;40029;58.708;50.190;2022-08-01T03:53:53;10.18;;;8.98;;
54121;SDS011;40029;58.708;50.190;2022-08-01T03:56:27;11.97;;;9.70;;
54121;SDS011;40029;58.708;50.190;2022-08-01T04:01:33;19.20;;;11.77;;
54121;SDS011;40029;58.708;50.190;2022-08-01T04:04:05;14.07;;;11.32;;
54121;SDS011;40029;58.708;50.190;2022-08-01T04:06:40;13.43;;;10.25;;
54121;SDS011;40029;58.708;50.190;2022-08-01T04:11:42;12.25;;;8.25;;
54121;SDS011;40029;58.708;50.190;2022-08-01T04:14:13;13.82;;;11.63;;
54121;SDS011;40029;58.708;50.190;2022-08-01T04:16:45;10.15;;;9.15;;
54121;SDS011;40029;58.708;50.190;2022-08-01T04:19:16;11.90;;;9.30;;
54121;SDS011;40029;58.708;50.190;2022-08-01T04:21:47;47.83;;;19.58;;
54121;SDS011;40029;58.708;50.190;2022-08-01T04:24:18;26.48;;;12.30;;
54121;SDS011;40029;58.708;50.190;2022-08-01T04:26:51;21.70;;;8.00;;
54121;SDS011;40029;58.708;50.190;2022-08-01T04:29:23;8.55;;;7.75;;
54121;SDS011;40029;58.708;50.190;2022-08-01T04:31:55;8.07;;;7.28;;
54121;SDS011;40029;58.708;50.190;2022-08-01T04:34:30;12.20;;;9.20;;
54121;SDS011;40029;58.708;50.190;2022-08-01T04:37:02;11.20;;;6.90;;
54121;SDS011;40029;58.708;50.190;2022-08-01T04:39:35;11.80;;;6.88;;
54121;SDS011;40029;58.708;50.190;2022-08-01T04:42:08;7.55;;;6.82;;
54121;SDS011;40029;58.708;50.190;2022-08-01T04:44:41;11.25;;;7.18;;
54121;SDS011;40029;58.708;50.190;2022-08-01T04:47:12;9.73;;;7.35;;
54121;SDS011;40029;58.708;50.190;2022-08-01T04:49:44;9.90;;;6.70;;
54121;SDS011;40029;58.708;50.190;2022-08-01T04:52:16;10.95;;;6.60;;
54121;SDS011;40029;58.708;50.190;2022-08-01T04:54:48;11.90;;;7.50;;
54121;SDS011;40029;58.708;50.190;2022-08-01T04:57:19;7.38;;;6.68;;
54121;SDS011;40029;58.708;50.190;2022-08-01T04:59:50;7.60;;;6.88;;
54121;SDS011;40029;58.708;50.190;2022-08-01T05:02:27;8.48;;;6.97;;
54121;SDS011;40029;58.708;50.190;2022-08-01T05:04:59;7.82;;;7.10;;
54121;SDS011;40029;58.708;50.190;2022-08-01T05:07:30;9.48;;;7.13;;
54121;SDS011;40029;58.708;50.190;2022-08-01T05:10:02;8.45;;;7.40;;
54121;SDS011;40029;58.708;50.190;2022-08-01T05:12:35;7.80;;;6.15;;
54121;SDS011;40029;58.708;50.190;2022-08-01T05:15:06;8.35;;;7.43;;
54121;SDS011;40029;58.708;50.190;2022-08-01T05:17:37;10.63;;;7.90;;
54121;SDS011;40029;58.708;50.190;2022-08-01T05:20:09;10.20;;;8.80;;
54121;SDS011;40029;58.708;50.190;2022-08-01T05:22:41;9.27;;;8.30;;
54121;SDS011;40029;58.708;50.190;2022-08-01T05:25:13;10.75;;;8.80;;
54121;SDS011;40029;58.708;50.190;2022-08-01T05:27:44;7.95;;;6.80;;
54121;SDS011;40029;58.708;50.190;2022-08-01T05:30:15;10.43;;;7.82;;
54121;SDS011;40029;58.708;50.190;2022-08-01T05:32:46;9.18;;;8.15;;
54121;SDS011;40029;58.708;50.190;2022-08-01T05:35:17;8.82;;;7.40;;
54121;SDS011;40029;58.708;50.190;2022-08-01T05:37:48;9.07;;;7.68;;
54121;SDS011;40029;58.708;50.190;2022-08-01T05:40:19;8.23;;;7.05;;
54121;SDS011;40029;58.708;50.190;2022-08-01T05:42:50;7.40;;;6.45;;
54121;SDS011;40029;58.708;50.190;2022-08-01T05:45:21;18.88;;;7.65;;
54121;SDS011;40029;58.708;50.190;2022-08-01T05:47:52;11.13;;;7.25;;
54121;SDS011;40029;58.708;50.190;2022-08-01T05:50:23;16.02;;;9.73;;
54121;SDS011;40029;58.708;50.190;2022-08-01T05:52:54;11.90;;;6.95;;
54121;SDS011;40029;58.708;50.190;2022-08-01T05:55:25;12.52;;;8.40;;
54121;SDS011;40029;58.708;50.190;2022-08-01T05:57:56;11.95;;;8.65;;
54121;SDS011;40029;58.708;50.190;2022-08-01T06:00:27;11.30;;;8.63;;
54121;SDS011;40029;58.708;50.190;2022-08-01T06:02:58;22.30;;;12.18;;
54121;SDS011;40029;58.708;50.190;2022-08-01T06:05:29;6.47;;;5.88;;
54121;SDS011;40029;58.708;50.190;2022-08-01T06:08:00;12.68;;;8.38;;
54121;SDS011;40029;58.708;50.190;2022-08-01T06:10:31;9.05;;;7.15;;
54121;SDS011;40029;58.708;50.190;2022-08-01T06:13:02;15.82;;;9.23;;
54121;SDS011;40029;58.708;50.190;2022-08-01T06:15:34;10.18;;;6.50;;
54121;SDS011;40029;58.708;50.190;2022-08-01T06:18:05;6.85;;;5.35;;
54121;SDS011;40029;58.708;50.190;2022-08-01T06:20:36;8.98;;;6.03;;
54121;SDS011;40029;58.708;50.190;2022-08-01T06:23:07;12.80;;;7.57;;
54121;SDS011;40029;58.708;50.190;2022-08-01T06:25:38;5.43;;;4.93;;
54121;SDS011;40029;58.708;50.190;2022-08-01T06:28:09;7.68;;;5.68;;
54121;SDS011;40029;58.708;50.190;2022-08-01T06:30:40;5.07;;;4.60;;
54121;SDS011;40029;58.708;50.190;2022-08-01T06:33:11;4.30;;;3.90;;
54121;SDS011;40029;58.708;50.190;2022-08-01T06:35:42;5.47;;;4.90;;
54121;SDS011;40029;58.708;50.190;2022-08-01T06:38:13;4.22;;;3.83;;
54121;SDS011;40029;58.708;50.190;2022-08-01T06:40:44;5.07;;;4.63;;
54121;SDS011;40029;58.708;50.190;2022-08-01T06:43:15;7.30;;;5.03;;
54121;SDS011;40029;58.708;50.190;2022-08-01T06:45:46;5.70;;;5.05;;
54121;SDS011;40029;58.708;50.190;2022-08-01T06:48:17;6.40;;;5.10;;
54121;SDS011;40029;58.708;50.190;2022-08-01T06:50:48;5.20;;;4.80;;
54121;SDS011;40029;58.708;50.190;2022-08-01T06:53:19;7.93;;;5.28;;
54121;SDS011;40029;58.708;50.190;2022-08-01T06:55:50;6.57;;;5.60;;
54121;SDS011;40029;58.708;50.190;2022-08-01T06:58:21;10.27;;;5.93;;
54121;SDS011;40029;58.708;50.190;2022-08-01T07:00:52;8.27;;;5.78;;
54121;SDS011;40029;58.708;50.190;2022-08-01T07:03:23;12.20;;;7.80;;
54121;SDS011;40029;58.708;50.190;2022-08-01T07:05:54;8.60;;;5.97;;
54121;SDS011;40029;58.708;50.190;2022-08-01T07:08:25;8.45;;;6.18;;
54121;SDS011;40029;58.708;50.190;2022-08-01T07:10:56;7.65;;;6.40;;
54121;SDS011;40029;58.708;50.190;2022-08-01T07:13:29;6.68;;;5.97;;
54121;SDS011;40029;58.708;50.190;2022-08-01T07:16:01;6.82;;;6.05;;
54121;SDS011;40029;58.708;50.190;2022-08-01T07:18:32;6.60;;;6.00;;
54121;SDS011;40029;58.708;50.190;2022-08-01T07:21:03;8.10;;;6.32;;
54121;SDS011;40029;58.708;50.190;2022-08-01T07:23:34;6.85;;;6.15;;
54121;SDS011;40029;58.708;50.190;2022-08-01T07:26:05;11.38;;;6.38;;
54121;SDS011;40029;58.708;50.190;2022-08-01T07:28:37;8.10;;;6.47;;
54121;SDS011;40029;58.708;50.190;2022-08-01T07:31:08;7.60;;;6.45;;
54121;SDS011;40029;58.708;50.190;2022-08-01T07:33:39;8.55;;;6.80;;
54121;SDS011;40029;58.708;50.190;2022-08-01T07:36:10;7.80;;;7.10;;
54121;SDS011;40029;58.708;50.190;2022-08-01T07:38:43;7.72;;;6.38;;
54121;SDS011;40029;58.708;50.190;2022-08-01T07:41:14;7.75;;;6.35;;
54121;SDS011;40029;58.708;50.190;2022-08-01T07:43:45;6.82;;;6.22;;
54121;SDS011;40029;58.708;50.190;2022-08-01T07:46:19;6.53;;;5.93;;
54121;SDS011;40029;58.708;50.190;2022-08-01T07:48:50;10.50;;;6.28;;
54121;SDS011;40029;58.708;50.190;2022-08-01T07:51:21;13.80;;;9.85;;
54121;SDS011;40029;58.708;50.190;2022-08-01T07:53:52;10.88;;;7.55;;
54121;SDS011;40029;58.708;50.190;2022-08-01T07:56:23;9.20;;;6.65;;
54121;SDS011;40029;58.708;50.190;2022-08-01T07:58:55;8.00;;;6.80;;
54121;SDS011;40029;58.708;50.190;2022-08-01T08:01:27;8.57;;;6.40;;
54121;SDS011;40029;58.708;50.190;2022-08-01T08:03:58;8.55;;;6.82;;
54121;SDS011;40029;58.708;50.190;2022-08-01T08:06:29;9.32;;;6.43;;
54121;SDS011;40029;58.708;50.190;2022-08-01T08:09:01;10.27;;;7.57;;
54121;SDS011;40029;58.708;50.190;2022-08-01T08:11:32;9.65;;;7.05;;
54121;SDS011;40029;58.708;50.190;2022-08-01T08:14:03;8.80;;;8.00;;
54121;SDS011;40029;58.708;50.190;2022-08-01T08:16:34;10.07;;;7.05;;
54121;SDS011;40029;58.708;50.190;2022-08-01T08:19:05;8.82;;;6.80;;
54121;SDS011;40029;58.708;50.190;2022-08-01T08:21:37;7.03;;;6.35;;
54121;SDS011;40029;58.708;50.190;2022-08-01T08:24:08;10.80;;;6.30;;
54121;SDS011;40029;58.708;50.190;2022-08-01T08:26:55;5.93;;;5.32;;
54121;SDS011;40029;58.708;50.190;2022-08-01T08:29:28;6.95;;;5.18;;
54121;SDS011;40029;58.708;50.190;2022-08-01T08:32:02;7.53;;;5.75;;
54121;SDS011;40029;58.708;50.190;2022-08-01T08:34:34;7.65;;;6.55;;
54121;SDS011;40029;58.708;50.190;2022-08-01T08:37:05;6.18;;;5.32;;
54121;SDS011;40029;58.708;50.190;2022-08-01T08:39:36;8.43;;;6.45;;
54121;SDS011;40029;58.708;50.190;2022-08-01T08:42:07;7.18;;;6.45;;
54121;SDS011;40029;58.708;50.190;2022-08-01T08:44:40;7.15;;;5.93;;
54121;SDS011;40029;58.708;50.190;2022-08-01T08:47:12;6.32;;;5.30;;
54121;SDS011;40029;58.708;50.190;2022-08-01T08:49:44;7.63;;;5.30;;
54121;SDS011;40029;58.708;50.190;2022-08-01T08:52:15;6.68;;;5.45;;
54121;SDS011;40029;58.708;50.190;2022-08-01T08:54:50;12.82;;;7.72;;
54121;SDS011;40029;58.708;50.190;2022-08-01T08:57:22;7.15;;;5.80;;
54121;SDS011;40029;58.708;50.190;2022-08-01T08:59:53;8.98;;;7.32;;
54121;SDS011;40029;58.708;50.190;2022-08-01T09:02:25;9.27;;;5.50;;
54121;SDS011;40029;58.708;50.190;2022-08-01T09:04:56;7.30;;;5.72;;
54121;SDS011;40029;58.708;50.190;2022-08-01T09:07:28;9.50;;;5.95;;
54121;SDS011;40029;58.708;50.190;2022-08-01T09:09:59;8.15;;;5.78;;
54121;SDS011;40029;58.708;50.190;2022-08-01T09:12:31;8.77;;;5.57;;
54121;SDS011;40029;58.708;50.190;2022-08-01T09:15:02;6.50;;;5.93;;
54121;SDS011;40029;58.708;50.190;2022-08-01T09:17:41;7.20;;;6.18;;
54121;SDS011;40029;58.708;50.190;2022-08-01T09:20:22;6.28;;;5.57;;
54121;SDS011;40029;58.708;50.190;2022-08-01T09:22:54;7.32;;;4.57;;
54121;SDS011;40029;58.708;50.190;2022-08-01T09:25:25;6.57;;;4.68;;
54121;SDS011;40029;58.708;50.190;2022-08-01T09:28:03;5.28;;;4.78;;
54121;SDS011;40029;58.708;50.190;2022-08-01T09:30:37;5.38;;;4.88;;
54121;SDS011;40029;58.708;50.190;2022-08-01T09:33:09;5.25;;;4.38;;
54121;SDS011;40029;58.708;50.190;2022-08-01T09:35:40;7.93;;;4.80;;
54121;SDS011;40029;58.708;50.190;2022-08-01T09:38:19;6.53;;;4.72;;
54121;SDS011;40029;58.708;50.190;2022-08-01T09:40:53;6.57;;;5.20;;
54121;SDS011;40029;58.708;50.190;2022-08-01T09:43:29;8.55;;;5.20;;
54121;SDS011;40029;58.708;50.190;2022-08-01T09:46:09;5.43;;;4.30;;
54121;SDS011;40029;58.708;50.190;2022-08-01T09:49:03;5.70;;;5.03;;
54121;SDS011;40029;58.708;50.190;2022-08-01T09:51:36;5.78;;;4.70;;
54121;SDS011;40029;58.708;50.190;2022-08-01T09:54:09;5.47;;;4.90;;
54121;SDS011;40029;58.708;50.190;2022-08-01T09:56:41;5.00;;;4.00;;
54121;SDS011;40029;58.708;50.190;2022-08-01T09:59:12;6.75;;;4.47;;
54121;SDS011;40029;58.708;50.190;2022-08-01T10:04:19;5.32;;;4.40;;
54121;SDS011;40029;58.708;50.190;2022-08-01T10:06:51;5.22;;;4.57;;
54121;SDS011;40029;58.708;50.190;2022-08-01T10:09:35;4.13;;;3.63;;
54121;SDS011;40029;58.708;50.190;2022-08-01T10:12:10;4.45;;;4.05;;
54121;SDS011;40029;58.708;50.190;2022-08-01T10:14:44;6.43;;;4.68;;
54121;SDS011;40029;58.708;50.190;2022-08-01T10:17:18;4.18;;;3.75;;
54121;SDS011;40029;58.708;50.190;2022-08-01T10:19:50;4.82;;;4.40;;
54121;SDS011;40029;58.708;50.190;2022-08-01T10:22:25;5.03;;;4.30;;
54121;SDS011;40029;58.708;50.190;2022-08-01T10:24:58;6.95;;;4.68;;
54121;SDS011;40029;58.708;50.190;2022-08-01T10:27:34;6.85;;;5.13;;
54121;SDS011;40029;58.708;50.190;2022-08-01T10:30:08;4.85;;;4.22;;
54121;SDS011;40029;58.708;50.190;2022-08-01T10:32:40;9.70;;;5.05;;
54121;SDS011;40029;58.708;50.190;2022-08-01T10:35:15;3.80;;;3.50;;
54121;SDS011;40029;58.708;50.190;2022-08-01T10:37:48;4.43;;;4.03;;
54121;SDS011;40029;58.708;50.190;2022-08-01T10:40:21;4.95;;;4.45;;
54121;SDS011;40029;58.708;50.190;2022-08-01T10:42:52;6.55;;;5.95;;
54121;SDS011;40029;58.708;50.190;2022-08-01T10:45:24;10.40;;;5.68;;
54121;SDS011;40029;58.708;50.190;2022-08-01T10:50:46;5.13;;;4.50;;
54121;SDS011;40029;58.708;50.190;2022-08-01T10:53:20;5.55;;;4.43;;
54121;SDS011;40029;58.708;50.190;2022-08-01T10:58:46;6.93;;;3.97;;
54121;SDS011;40029;58.708;50.190;2022-08-01T11:01:51;8.68;;;4.50;;
54121;SDS011;40029;58.708;50.190;2022-08-01T11:05:11;5.82;;;5.22;;
54121;SDS011;40029;58.708;50.190;2022-08-01T11:07:35;8.43;;;4.30;;
54121;SDS011;40029;58.708;50.190;2022-08-01T11:10:17;5.20;;;4.57;;
54121;SDS011;40029;58.708;50.190;2022-08-01T11:12:54;9.18;;;4.88;;
54121;SDS011;40029;58.708;50.190;2022-08-01T11:15:25;5.25;;;4.40;;
54121;SDS011;40029;58.708;50.190;2022-08-01T11:17:58;4.88;;;4.45;;
54121;SDS011;40029;58.708;50.190;2022-08-01T11:20:34;5.85;;;4.85;;
54121;SDS011;40029;58.708;50.190;2022-08-01T11:41:41;5.57;;;3.63;;
54121;SDS011;40029;58.708;50.190;2022-08-01T11:44:20;5.18;;;4.65;;
54121;SDS011;40029;58.708;50.190;2022-08-01T11:47:05;4.57;;;4.18;;
54121;SDS011;40029;58.708;50.190;2022-08-01T11:52:15;6.90;;;4.68;;
54121;SDS011;40029;58.708;50.190;2022-08-01T11:54:53;8.57;;;5.43;;
54121;SDS011;40029;58.708;50.190;2022-08-01T11:57:28;5.90;;;3.67;;
54121;SDS011;40029;58.708;50.190;2022-08-01T12:00:03;4.75;;;3.80;;
54121;SDS011;40029;58.708;50.190;2022-08-01T12:02:43;5.45;;;5.03;;
54121;SDS011;40029;58.708;50.190;2022-08-01T12:05:16;5.82;;;4.03;;
54121;SDS011;40029;58.708;50.190;2022-08-01T12:07:51;3.88;;;3.50;;
54121;SDS011;40029;58.708;50.190;2022-08-01T12:10:25;6.53;;;4.70;;
54121;SDS011;40029;58.708;50.190;2022-08-01T12:12:59;8.60;;;7.70;;
54121;SDS011;40029;58.708;50.190;2022-08-01T12:15:35;8.98;;;8.02;;
54121;SDS011;40029;58.708;50.190;2022-08-01T12:18:08;11.07;;;9.02;;
54121;SDS011;40029;58.708;50.190;2022-08-01T12:20:41;9.73;;;7.68;;
54121;SDS011;40029;58.708;50.190;2022-08-01T12:23:15;7.63;;;6.93;;
54121;SDS011;40029;58.708;50.190;2022-08-01T12:25:50;5.43;;;4.97;;
54121;SDS011;40029;58.708;50.190;2022-08-01T12:28:22;3.60;;;3.30;;
54121;SDS011;40029;58.708;50.190;2022-08-01T12:30:53;3.92;;;3.10;;
54121;SDS011;40029;58.708;50.190;2022-08-01T12:33:24;5.30;;;4.25;;
54121;SDS011;40029;58.708;50.190;2022-08-01T12:35:56;4.88;;;3.67;;
54121;SDS011;40029;58.708;50.190;2022-08-01T12:38:28;5.78;;;3.65;;
54121;SDS011;40029;58.708;50.190;2022-08-01T12:41:00;8.45;;;6.63;;
54121;SDS011;40029;58.708;50.190;2022-08-01T12:43:32;10.63;;;7.60;;
54121;SDS011;40029;58.708;50.190;2022-08-01T12:46:04;12.73;;;9.05;;
54121;SDS011;40029;58.708;50.190;2022-08-01T12:48:36;6.95;;;6.25;;
54121;SDS011;40029;58.708;50.190;2022-08-01T12:51:08;8.85;;;7.65;;
54121;SDS011;40029;58.708;50.190;2022-08-01T12:53:42;12.68;;;5.93;;
54121;SDS011;40029;58.708;50.190;2022-08-01T12:56:13;4.05;;;3.58;;
54121;SDS011;40029;58.708;50.190;2022-08-01T12:58:45;3.90;;;3.15;;
54121;SDS011;40029;58.708;50.190;2022-08-01T13:01:16;10.98;;;6.53;;
54121;SDS011;40029;58.708;50.190;2022-08-01T13:04:00;9.05;;;6.15;;
54121;SDS011;40029;58.708;50.190;2022-08-01T13:06:34;21.10;;;4.30;;
54121;SDS011;40029;58.708;50.190;2022-08-01T13:09:06;5.38;;;4.88;;
54121;SDS011;40029;58.708;50.190;2022-08-01T13:11:38;4.40;;;4.00;;
54121;SDS011;40029;58.708;50.190;2022-08-01T13:14:09;7.60;;;5.88;;
54121;SDS011;40029;58.708;50.190;2022-08-01T13:16:46;4.20;;;3.70;;
54121;SDS011;40029;58.708;50.190;2022-08-01T13:19:18;4.80;;;3.25;;
54121;SDS011;40029;58.708;50.190;2022-08-01T13:21:55;5.78;;;5.18;;
54121;SDS011;40029;58.708;50.190;2022-08-01T13:24:28;9.18;;;5.65;;
54121;SDS011;40029;58.708;50.190;2022-08-01T13:27:03;4.63;;;4.18;;
54121;SDS011;40029;58.708;50.190;2022-08-01T13:29:36;4.20;;;3.08;;
54121;SDS011;40029;58.708;50.190;2022-08-01T13:32:16;3.92;;;2.80;;
54121;SDS011;40029;58.708;50.190;2022-08-01T13:34:51;4.10;;;3.15;;
54121;SDS011;40029;58.708;50.190;2022-08-01T13:37:32;3.53;;;3.03;;
54121;SDS011;40029;58.708;50.190;2022-08-01T13:40:03;4.53;;;3.20;;
54121;SDS011;40029;58.708;50.190;2022-08-01T13:42:35;4.18;;;3.40;;
54121;SDS011;40029;58.708;50.190;2022-08-01T13:45:06;2.70;;;2.50;;
54121;SDS011;40029;58.708;50.190;2022-08-01T13:47:43;3.10;;;2.90;;
54121;SDS011;40029;58.708;50.190;2022-08-01T13:50:15;3.25;;;2.95;;
54121;SDS011;40029;58.708;50.190;2022-08-01T13:52:46;3.63;;;2.97;;
54121;SDS011;40029;58.708;50.190;2022-08-01T13:55:17;3.28;;;2.65;;
54121;SDS011;40029;58.708;50.190;2022-08-01T13:57:49;4.15;;;2.80;;
54121;SDS011;40029;58.708;50.190;2022-08-01T14:00:20;3.40;;;3.08;;
54121;SDS011;40029;58.708;50.190;2022-08-01T14:02:51;18.98;;;3.95;;
54121;SDS011;40029;58.708;50.190;2022-08-01T14:05:22;7.80;;;3.05;;
54121;SDS011;40029;58.708;50.190;2022-08-01T14:07:53;6.53;;;3.05;;
54121;SDS011;40029;58.708;50.190;2022-08-01T14:10:24;2.88;;;2.67;;
54121;SDS011;40029;58.708;50.190;2022-08-01T14:12:55;5.15;;;2.50;;
54121;SDS011;40029;58.708;50.190;2022-08-01T14:15:28;7.05;;;2.78;;
54121;SDS011;40029;58.708;50.190;2022-08-01T14:17:59;5.45;;;3.15;;
54121;SDS011;40029;58.708;50.190;2022-08-01T14:20:30;3.20;;;2.72;;
54121;SDS011;40029;58.708;50.190;2022-08-01T14:23:01;4.15;;;2.92;;
54121;SDS011;40029;58.708;50.190;2022-08-01T14:25:32;3.33;;;3.05;;
54121;SDS011;40029;58.708;50.190;2022-08-01T14:28:04;4.97;;;3.03;;
54121;SDS011;40029;58.708;50.190;2022-08-01T14:30:36;4.10;;;2.97;;
54121;SDS011;40029;58.708;50.190;2022-08-01T14:33:08;5.43;;;3.33;;
54121;SDS011;40029;58.708;50.190;2022-08-01T14:35:40;3.58;;;3.10;;
54121;SDS011;40029;58.708;50.190;2022-08-01T14:38:13;4.90;;;3.80;;
54121;SDS011;40029;58.708;50.190;2022-08-01T14:40:44;4.93;;;3.22;;
54121;SDS011;40029;58.708;50.190;2022-08-01T14:43:17;6.80;;;3.60;;
54121;SDS011;40029;58.708;50.190;2022-08-01T14:45:49;7.30;;;3.58;;
54121;SDS011;40029;58.708;50.190;2022-08-01T14:48:21;3.75;;;3.20;;
54121;SDS011;40029;58.708;50.190;2022-08-01T14:50:52;5.40;;;2.80;;
54121;SDS011;40029;58.708;50.190;2022-08-01T14:53:23;2.80;;;2.22;;
54121;SDS011;40029;58.708;50.190;2022-08-01T14:55:54;4.05;;;2.42;;
54121;SDS011;40029;58.708;50.190;2022-08-01T14:58:25;3.35;;;2.30;;
54121;SDS011;40029;58.708;50.190;2022-08-01T15:00:56;3.03;;;2.83;;
54121;SDS011;40029;58.708;50.190;2022-08-01T15:03:28;5.68;;;2.58;;
54121;SDS011;40029;58.708;50.190;2022-08-01T15:05:59;4.40;;;2.35;;
54121;SDS011;40029;58.708;50.190;2022-08-01T15:08:30;3.92;;;3.22;;
54121;SDS011;40029;58.708;50.190;2022-08-01T15:11:02;3.42;;;2.90;;
54121;SDS011;40029;58.708;50.190;2022-08-01T15:13:33;4.15;;;2.60;;
54121;SDS011;40029;58.708;50.190;2022-08-01T15:16:04;4.72;;;2.63;;
54121;SDS011;40029;58.708;50.190;2022-08-01T15:18:35;4.95;;;3.10;;
54121;SDS011;40029;58.708;50.190;2022-08-01T15:21:06;4.65;;;2.80;;
54121;SDS011;40029;58.708;50.190;2022-08-01T15:23:37;3.08;;;2.78;;
54121;SDS011;40029;58.708;50.190;2022-08-01T15:26:08;3.85;;;2.65;;
54121;SDS011;40029;58.708;50.190;2022-08-01T15:28:44;5.05;;;3.50;;
54121;SDS011;40029;58.708;50.190;2022-08-01T15:31:15;6.03;;;4.00;;
54121;SDS011;40029;58.708;50.190;2022-08-01T15:33:46;5.20;;;3.60;;
54121;SDS011;40029;58.708;50.190;2022-08-01T15:36:17;8.48;;;4.25;;
54121;SDS011;40029;58.708;50.190;2022-08-01T15:38:48;6.43;;;4.38;;
54121;SDS011;40029;58.708;50.190;2022-08-01T15:41:19;4.72;;;3.83;;
54121;SDS011;40029;58.708;50.190;2022-08-01T15:43:50;5.75;;;4.28;;
54121;SDS011;40029;58.708;50.190;2022-08-01T15:46:21;5.03;;;4.30;;
54121;SDS011;40029;58.708;50.190;2022-08-01T15:48:52;7.03;;;5.40;;
54121;SDS011;40029;58.708;50.190;2022-08-01T15:51:23;8.85;;;5.65;;